Kingsville Naval Air Station
KNQI : now visible

Airfield :











YOU CAN JOIN US ON...

 
LOGIN :

Register | Disclaimer

   EN    FR    IT 

 









Legend :    VFR   Marginal VFR   IFR   Intensive IFR   Very Intensive IFR
Visi :
Ceiling :
>= 8 km
>= 3000ft
5 to 8 km
1000 to 3000 ft
1500m to 5 km
500 to 1000 ft
800 to 1500m
200 to 500 ft
< 800m
< 200 ft
Symbols :   Thunderstorms  Fog  Heavy snow  Heavy precipitations  Wind > 20 kt






- Airport Elevation : 50 ft


KNQI - Kingsville Naval Air Station

CURRENT METAR :
  • 191656Z 17011KT 10SM FEW020 FEW180 SCT250 34/22 A2991 RMK AO2 SLP125 T03440217 $

EXPIRED METARs :
  • 191556Z 17010KT 10SM FEW030 FEW180 SCT250 33/23 A2991 RMK AO2 SLP125 T03280228 $
  • 191456Z 19012KT 10SM FEW024 SCT250 31/24 A2991 RMK AO2 SLP125 T03060239 50002 $

TAF COR TAF KNQI
Valid from the 19 at 15:00 until the 20 at 15:00 UTC


1915/2015 17012KT 9999 FEW025 FEW035 SCT250 QNH2988INS
TEMPO 1915/1918 18015G25KT SCT028 SCT040 BKN250
BECMG 1918/1920 14010G17KT 9999 VCSH SCT050 SCT250 QNH2981INS
FM192200 13016G23KT 9999 FEW040 SCT180 SCT250 QNH2980INS
FM200300 16008KT 9999 SCT020 QNH2986INS
TEMPO 2008/2013 VRB03KT 6000 BR SCT014 T36/1920Z COR 1600 T25/2012Z FN20042
KZHU FIR / North America



MET'MAP, your aeronautical weather chart ! - Copyright ORBIFLY December 2007 - Disclaimer

ORBIFLY MET'MAP TEAM :

Programming & Development : Alexandra Zaïnal
Original concept : Baudouin d'Aumeries
Technical & hardware support : Manuel Goepfert
Assistance : Marc-Olivier Méhu




SOURCES & CREDITS :

   NOAA       Earth
Advisory